Braddock, New Jersey
Current Conditions -  °F | °C
As of 9:54 PM on Saturday 24 Jan 2015 (Local Time) from KACY Reporting Station
Clear Clear  
Wind Chill: -4°   Ceiling: Unl
Heat Index:   Visibility: 9mi
Dew Point: -2°   Wind: 12mph
Humidity: 82%   Direction: 260°W
Pressure: 29.53"   Gusts: NA
Location:  39.637°N, 74.7602°W
Report Text: KACY 250254Z 26010KT 9SM CLR 01/M02 A2953 RMK AO2 SLP001 T00111017 53026
Loading
Personal Weather Stations






























Interactive Weather Map New forecast layout! Learn more

10-Day Weather Forecast

Advertisements
Track Severe Weather on mobile